Time;durP1;ratioP1;P1;durP2;ratioP2;P2;SDS_P1;SDS_P2;PMS_P1;PMS_P2;Temp;Humidity;BMP_temperature;BMP_pressure;BME280_temperature;BME280_humidity;BME280_pressure;Samples;Min_cycle;Max_cycle;Signal;HPM_P1;HPM_P2
2023/10/18 00:01:49;;;;;;;8.20;5.50;;;;;;;;;;6282783;22;20210;-70
2023/10/18 00:04:16;;;;;;;8.18;5.15;;;;;;;;;;6252281;22;20094;-71
2023/10/18 00:06:41;;;;;;;9.15;5.72;;;;;;;;;;6255915;22;20010;-73
2023/10/18 00:11:51;;;;;;;10.70;5.70;;;;;;;;;;6280314;22;20943;-70
2023/10/18 00:14:18;;;;;;;12.10;5.20;;;;;;;;;;6282886;22;20056;-73
2023/10/18 00:16:43;;;;;;;9.85;5.35;;;;;;;;;;6252715;22;20033;-69
2023/10/18 00:19:08;;;;;;;10.00;5.10;;;;;;;;;;6283793;22;20025;-72
2023/10/18 00:21:33;;;;;;;7.87;4.97;;;;;;;;;;6254643;22;20608;-68
2023/10/18 00:23:59;;;;;;;10.40;5.50;;;;;;;;;;6253187;22;20273;-71
2023/10/18 00:26:24;;;;;;;10.17;5.73;;;;;;;;;;6255215;22;20392;-71
2023/10/18 00:28:52;;;;;;;7.75;5.28;;;;;;;;;;6250955;22;20260;-72
2023/10/18 00:31:18;;;;;;;10.80;5.45;;;;;;;;;;6283967;22;20094;-72
2023/10/18 00:33:44;;;;;;;12.55;6.40;;;;;;;;;;6254022;22;20007;-70
2023/10/18 00:36:12;;;;;;;9.93;5.90;;;;;;;;;;6255384;22;20684;-69
2023/10/18 00:38:39;;;;;;;11.95;5.63;;;;;;;;;;6283090;22;20000;-66
2023/10/18 00:41:08;;;;;;;10.23;5.70;;;;;;;;;;6282178;22;20007;-72
2023/10/18 00:43:33;;;;;;;8.67;5.60;;;;;;;;;;6253365;22;20035;-69
2023/10/18 00:45:59;;;;;;;10.18;5.18;;;;;;;;;;6253424;22;20023;-71
2023/10/18 00:48:26;;;;;;;9.45;5.65;;;;;;;;;;6256604;22;20015;-68
2023/10/18 00:50:52;;;;;;;9.63;5.53;;;;;;;;;;6254800;22;19995;-68
2023/10/18 00:53:22;;;;;;;8.30;5.80;;;;;;;;;;6283254;22;20025;-71
2023/10/18 00:55:48;;;;;;;8.02;5.18;;;;;;;;;;6282361;22;20056;-72
2023/10/18 00:58:15;;;;;;;9.85;5.53;;;;;;;;;;6283739;22;20011;-71
2023/10/18 01:00:43;;;;;;;9.15;5.65;;;;;;;;;;6257328;22;20034;-68
2023/10/18 01:06:08;;;;;;;7.25;4.93;;;;;;;;;;6285300;22;20576;-71
2023/10/18 01:08:42;;;;;;;9.63;5.30;;;;;;;;;;6257113;22;20021;-72
2023/10/18 01:11:10;;;;;;;8.95;5.78;;;;;;;;;;6286341;22;20581;-68
2023/10/18 01:13:37;;;;;;;11.55;5.30;;;;;;;;;;6255454;22;20004;-71
2023/10/18 01:16:06;;;;;;;8.40;5.10;;;;;;;;;;6281237;22;19991;-73
2023/10/18 01:18:31;;;;;;;8.43;5.53;;;;;;;;;;6282083;22;20000;-73
2023/10/18 01:20:56;;;;;;;7.93;4.97;;;;;;;;;;6284613;22;19999;-66
2023/10/18 01:23:21;;;;;;;8.27;5.43;;;;;;;;;;6284097;22;20388;-71
2023/10/18 01:25:47;;;;;;;7.88;5.22;;;;;;;;;;6282128;22;20229;-71
2023/10/18 01:28:14;;;;;;;10.13;5.30;;;;;;;;;;6257334;22;20029;-70
2023/10/18 01:30:42;;;;;;;8.30;5.00;;;;;;;;;;6285352;22;20254;-70
2023/10/18 01:33:10;;;;;;;9.77;5.43;;;;;;;;;;6257682;22;20511;-69
2023/10/18 01:35:50;;;;;;;10.15;5.80;;;;;;;;;;6254628;22;20006;-70
2023/10/18 01:38:19;;;;;;;9.85;5.45;;;;;;;;;;6254679;22;20003;-70
2023/10/18 01:40:52;;;;;;;8.60;5.70;;;;;;;;;;6256935;22;20558;-70
2023/10/18 01:43:17;;;;;;;9.45;5.70;;;;;;;;;;6256553;22;20098;-69
2023/10/18 01:45:47;;;;;;;8.68;4.78;;;;;;;;;;6281975;22;20094;-72
2023/10/18 01:48:17;;;;;;;10.63;5.30;;;;;;;;;;6280945;22;20475;-73
2023/10/18 01:50:43;;;;;;;8.80;5.63;;;;;;;;;;6255289;22;19995;-69
2023/10/18 01:53:15;;;;;;;9.43;5.40;;;;;;;;;;6283976;22;19995;-71
2023/10/18 01:55:42;;;;;;;9.07;5.50;;;;;;;;;;6282897;22;20515;-71
2023/10/18 01:58:09;;;;;;;8.07;5.07;;;;;;;;;;6254300;22;20042;-68
2023/10/18 02:00:44;;;;;;;8.18;5.50;;;;;;;;;;6285376;22;20011;-71
2023/10/18 02:03:11;;;;;;;8.35;5.45;;;;;;;;;;6283003;22;20033;-68
2023/10/18 02:05:37;;;;;;;8.60;5.47;;;;;;;;;;6257803;22;19999;-72
2023/10/18 02:08:05;;;;;;;10.00;5.90;;;;;;;;;;6282717;22;20332;-72
2023/10/18 02:10:32;;;;;;;8.70;5.22;;;;;;;;;;6257551;22;20000;-73
2023/10/18 02:13:00;;;;;;;9.95;5.20;;;;;;;;;;6255914;22;20018;-70
2023/10/18 02:15:26;;;;;;;9.90;5.45;;;;;;;;;;6256465;22;20003;-69
2023/10/18 02:17:51;;;;;;;9.35;5.05;;;;;;;;;;6283384;22;20765;-67
2023/10/18 02:20:26;;;;;;;9.00;5.32;;;;;;;;;;6283922;22;21002;-70
2023/10/18 02:22:53;;;;;;;8.23;4.80;;;;;;;;;;6285050;22;20492;-70
2023/10/18 02:25:32;;;;;;;7.97;4.90;;;;;;;;;;6282844;22;20057;-68
2023/10/18 02:27:59;;;;;;;7.67;4.43;;;;;;;;;;6285744;22;20003;-72
2023/10/18 02:30:24;;;;;;;7.03;3.85;;;;;;;;;;6281251;22;20030;-71
2023/10/18 02:32:49;;;;;;;6.27;3.63;;;;;;;;;;6284614;22;20848;-68
2023/10/18 02:35:19;;;;;;;7.20;3.45;;;;;;;;;;6254063;22;20221;-68
2023/10/18 02:37:44;;;;;;;7.40;3.55;;;;;;;;;;6256399;22;20283;-70
2023/10/18 02:40:17;;;;;;;7.68;3.63;;;;;;;;;;6282524;22;20136;-72
2023/10/18 02:42:43;;;;;;;10.07;3.42;;;;;;;;;;6283357;22;19995;-69
2023/10/18 02:45:13;;;;;;;7.68;3.60;;;;;;;;;;6255091;22;20019;-68
2023/10/18 02:47:38;;;;;;;8.50;3.40;;;;;;;;;;6280932;22;20672;-66
2023/10/18 02:50:04;;;;;;;8.83;3.50;;;;;;;;;;6285646;22;20011;-71
2023/10/18 02:52:30;;;;;;;6.40;3.55;;;;;;;;;;6281572;22;20216;-70
2023/10/18 02:54:57;;;;;;;6.32;3.55;;;;;;;;;;6284777;22;19995;-71
2023/10/18 02:57:24;;;;;;;7.80;3.60;;;;;;;;;;6283201;22;20038;-70
2023/10/18 02:59:51;;;;;;;6.65;3.42;;;;;;;;;;6257866;22;20010;-69
2023/10/18 03:02:23;;;;;;;7.45;3.30;;;;;;;;;;6281980;22;20007;-70
2023/10/18 03:04:49;;;;;;;7.93;3.17;;;;;;;;;;6254053;22;20082;-67
2023/10/18 03:07:15;;;;;;;7.82;3.00;;;;;;;;;;6283576;22;20078;-71
2023/10/18 03:09:40;;;;;;;6.20;3.22;;;;;;;;;;6253097;22;20109;-68
2023/10/18 03:12:14;;;;;;;6.85;3.17;;;;;;;;;;6258241;22;20591;-67
2023/10/18 03:14:55;;;;;;;6.72;3.38;;;;;;;;;;6280861;22;20006;-73
2023/10/18 03:17:35;;;;;;;6.60;2.90;;;;;;;;;;6284194;22;20483;-72
2023/10/18 03:20:03;;;;;;;7.22;3.20;;;;;;;;;;6284868;22;20420;-73
2023/10/18 03:22:31;;;;;;;7.13;3.08;;;;;;;;;;6256417;22;20182;-73
2023/10/18 03:24:59;;;;;;;6.13;3.10;;;;;;;;;;6256444;22;19995;-70
2023/10/18 03:27:29;;;;;;;6.22;3.30;;;;;;;;;;6253166;22;20068;-70
2023/10/18 03:30:10;;;;;;;6.18;3.25;;;;;;;;;;6257473;22;20766;-68
2023/10/18 03:32:38;;;;;;;6.70;3.60;;;;;;;;;;6283822;22;20775;-67
2023/10/18 03:35:04;;;;;;;6.10;3.85;;;;;;;;;;6284696;22;19999;-70
2023/10/18 03:37:33;;;;;;;6.32;3.28;;;;;;;;;;6260022;22;20007;-71
2023/10/18 03:40:07;;;;;;;8.18;3.50;;;;;;;;;;6287375;22;20021;-70
2023/10/18 03:42:33;;;;;;;9.00;3.75;;;;;;;;;;6258729;22;20054;-69
2023/10/18 03:45:10;;;;;;;6.25;3.47;;;;;;;;;;6280563;22;20443;-70
2023/10/18 03:47:36;;;;;;;8.48;3.47;;;;;;;;;;6284975;22;20489;-69
2023/10/18 03:50:06;;;;;;;7.65;3.75;;;;;;;;;;6255928;22;19999;-71
2023/10/18 03:52:31;;;;;;;9.07;3.78;;;;;;;;;;6256196;22;19999;-69
2023/10/18 03:57:28;;;;;;;9.80;3.77;;;;;;;;;;6283644;22;20086;-70
2023/10/18 04:00:06;;;;;;;7.07;4.07;;;;;;;;;;6256964;22;20259;-72
2023/10/18 04:02:34;;;;;;;8.20;3.97;;;;;;;;;;6254814;22;20420;-69
2023/10/18 04:05:00;;;;;;;7.68;4.00;;;;;;;;;;6284223;22;20421;-64
2023/10/18 04:07:26;;;;;;;11.38;4.72;;;;;;;;;;6282310;22;20010;-69
2023/10/18 04:10:06;;;;;;;8.70;4.20;;;;;;;;;;6283791;22;20094;-70
2023/10/18 04:12:32;;;;;;;12.25;4.13;;;;;;;;;;6254216;22;20006;-72
2023/10/18 04:15:01;;;;;;;9.50;4.38;;;;;;;;;;6252160;22;20375;-65
2023/10/18 04:17:36;;;;;;;8.47;4.30;;;;;;;;;;6284526;22;20157;-71
2023/10/18 04:22:49;;;;;;;7.88;4.40;;;;;;;;;;6293024;22;20067;-67
2023/10/18 04:25:16;;;;;;;8.75;4.88;;;;;;;;;;6253563;22;20003;-71
2023/10/18 04:27:44;;;;;;;12.30;4.90;;;;;;;;;;6252372;22;20090;-67
2023/10/18 04:30:11;;;;;;;11.40;4.88;;;;;;;;;;6283412;22;20001;-71
2023/10/18 04:32:36;;;;;;;10.73;5.20;;;;;;;;;;6255302;22;20869;-70
2023/10/18 04:35:09;;;;;;;12.63;5.00;;;;;;;;;;6258631;22;19999;-68
2023/10/18 04:37:36;;;;;;;14.52;5.22;;;;;;;;;;6256491;22;20328;-70
2023/10/18 04:40:04;;;;;;;16.15;5.07;;;;;;;;;;6258786;22;20626;-68
2023/10/18 04:42:29;;;;;;;13.38;5.65;;;;;;;;;;6276864;22;20676;-72
2023/10/18 04:44:57;;;;;;;13.50;4.50;;;;;;;;;;6250908;22;20022;-71
2023/10/18 04:47:31;;;;;;;12.35;4.50;;;;;;;;;;6249865;22;20311;-69
2023/10/18 04:50:11;;;;;;;9.60;4.28;;;;;;;;;;6251397;22;20534;-70
2023/10/18 04:52:42;;;;;;;10.38;4.80;;;;;;;;;;6252265;22;20000;-69
2023/10/18 04:55:11;;;;;;;11.68;4.90;;;;;;;;;;6248728;22;20002;-71
2023/10/18 04:57:38;;;;;;;8.77;4.60;;;;;;;;;;6252948;22;20825;-70
2023/10/18 05:00:11;;;;;;;10.88;5.68;;;;;;;;;;6250753;22;20004;-71
2023/10/18 05:02:38;;;;;;;8.57;5.13;;;;;;;;;;6253532;22;20612;-69
2023/10/18 05:05:10;;;;;;;9.95;5.53;;;;;;;;;;6250318;22;20011;-70
2023/10/18 05:07:47;;;;;;;12.30;5.38;;;;;;;;;;6249016;22;20039;-70
2023/10/18 05:10:19;;;;;;;9.95;5.75;;;;;;;;;;6253313;22;20000;-70
2023/10/18 05:13:01;;;;;;;12.20;5.82;;;;;;;;;;6249682;22;19996;-72
2023/10/18 05:15:29;;;;;;;7.82;5.57;;;;;;;;;;6252241;22;20053;-69
2023/10/18 05:18:03;;;;;;;9.65;5.40;;;;;;;;;;6247288;22;20015;-68
2023/10/18 05:20:41;;;;;;;9.45;5.15;;;;;;;;;;6251471;22;20354;-67
2023/10/18 05:23:07;;;;;;;11.10;5.53;;;;;;;;;;6250330;22;20048;-67
2023/10/18 05:25:35;;;;;;;9.65;5.18;;;;;;;;;;6246684;22;20770;-70
2023/10/18 05:28:15;;;;;;;8.48;5.13;;;;;;;;;;6251633;22;19995;-67
2023/10/18 05:34:18;;;;;;;14.77;6.40;;;;;;;;;;6253122;22;20682;-69
2023/10/18 05:41:29;;;;;;;9.93;5.13;;;;;;;;;;6252620;22;20321;-68
2023/10/18 05:44:00;;;;;;;12.30;5.80;;;;;;;;;;6252161;22;19999;-70
2023/10/18 05:46:33;;;;;;;14.05;5.47;;;;;;;;;;6255711;22;20006;-69
2023/10/18 05:49:00;;;;;;;16.38;5.05;;;;;;;;;;6254336;22;20523;-68
2023/10/18 05:53:51;;;;;;;7.88;5.07;;;;;;;;;;6282660;22;20010;-69
2023/10/18 05:56:21;;;;;;;15.48;5.18;;;;;;;;;;6279714;22;20558;-68
2023/10/18 05:58:46;;;;;;;;;;;;;;;;;;6256179;22;20007;-72
2023/10/18 06:01:13;;;;;;;10.07;5.05;;;;;;;;;;6279946;22;19918;-72
2023/10/18 06:03:39;;;;;;;11.07;5.63;;;;;;;;;;6284896;22;19999;-71
2023/10/18 06:06:07;;;;;;;11.60;5.28;;;;;;;;;;6252064;22;20007;-69
2023/10/18 06:08:36;;;;;;;9.20;4.70;;;;;;;;;;6256336;22;20606;-70
2023/10/18 06:11:08;;;;;;;9.63;4.60;;;;;;;;;;6285213;22;19999;-73
2023/10/18 06:13:35;;;;;;;8.77;4.22;;;;;;;;;;6256218;22;20082;-71
2023/10/18 06:16:18;;;;;;;10.25;4.90;;;;;;;;;;6255393;22;20009;-67
2023/10/18 06:18:45;;;;;;;10.07;4.47;;;;;;;;;;6281909;22;19999;-68
2023/10/18 06:21:12;;;;;;;9.05;4.68;;;;;;;;;;6282435;22;20351;-71
2023/10/18 06:23:38;;;;;;;8.48;4.97;;;;;;;;;;6282888;22;20000;-71
2023/10/18 06:28:53;;;;;;;13.50;6.30;;;;;;;;;;6284316;22;20018;-66
2023/10/18 06:31:19;;;;;;;12.43;7.43;;;;;;;;;;6253611;22;20003;-68
2023/10/18 06:33:44;;;;;;;14.82;6.03;;;;;;;;;;6255010;22;20048;-69
2023/10/18 06:36:12;;;;;;;13.03;6.47;;;;;;;;;;6280927;22;20030;-66
2023/10/18 06:38:37;;;;;;;10.05;7.10;;;;;;;;;;6282333;22;20681;-70
2023/10/18 06:41:10;;;;;;;13.13;6.53;;;;;;;;;;6283304;22;20009;-67
2023/10/18 06:43:36;;;;;;;11.25;5.47;;;;;;;;;;6281569;22;20053;-66
2023/10/18 06:46:04;;;;;;;8.38;4.43;;;;;;;;;;6283656;22;20628;-70
2023/10/18 06:48:31;;;;;;;10.15;5.25;;;;;;;;;;6281600;22;19999;-71
2023/10/18 06:50:57;;;;;;;8.63;4.55;;;;;;;;;;6254119;22;20499;-72
2023/10/18 06:53:22;;;;;;;11.18;4.85;;;;;;;;;;6253793;22;20053;-68
2023/10/18 06:56:06;;;;;;;12.00;5.15;;;;;;;;;;6280189;22;20005;-68
2023/10/18 07:01:03;;;;;;;10.00;4.60;;;;;;;;;;6275722;22;20000;-64
2023/10/18 07:03:28;;;;;;;9.98;4.85;;;;;;;;;;6246848;22;20348;-64
2023/10/18 07:05:56;;;;;;;9.80;4.27;;;;;;;;;;6247636;22;20125;-67
2023/10/18 07:08:29;;;;;;;9.45;4.57;;;;;;;;;;6248768;22;20229;-65
2023/10/18 07:10:57;;;;;;;10.38;4.72;;;;;;;;;;6247576;22;20060;-63
2023/10/18 07:13:33;;;;;;;12.50;4.47;;;;;;;;;;6274909;22;19995;-66
2023/10/18 07:16:05;;;;;;;10.50;4.53;;;;;;;;;;6276507;22;20701;-64
2023/10/18 07:18:33;;;;;;;7.97;4.32;;;;;;;;;;6275691;22;20003;-65
2023/10/18 07:21:05;;;;;;;12.48;4.38;;;;;;;;;;6274553;22;20248;-65
2023/10/18 07:23:30;;;;;;;8.88;4.60;;;;;;;;;;6275357;22;19996;-68
2023/10/18 07:25:55;;;;;;;8.30;4.22;;;;;;;;;;6275746;22;20003;-66
2023/10/18 07:28:21;;;;;;;8.53;4.17;;;;;;;;;;6276796;22;20006;-65
2023/10/18 07:30:47;;;;;;;9.38;4.63;;;;;;;;;;6276040;22;20244;-64
2023/10/18 07:33:15;;;;;;;14.68;4.68;;;;;;;;;;6276035;22;20074;-65
2023/10/18 07:35:45;;;;;;;9.45;4.80;;;;;;;;;;6276443;22;20472;-65
2023/10/18 07:38:10;;;;;;;8.32;4.68;;;;;;;;;;6278101;22;20685;-64
2023/10/18 07:40:40;;;;;;;8.60;4.53;;;;;;;;;;6248028;22;20068;-68
2023/10/18 07:43:07;;;;;;;9.65;5.05;;;;;;;;;;6251204;22;19999;-61
2023/10/18 07:45:33;;;;;;;9.63;5.00;;;;;;;;;;6272928;22;20019;-63
2023/10/18 07:47:58;;;;;;;10.33;4.97;;;;;;;;;;6278585;22;20772;-64
2023/10/18 07:50:41;;;;;;;7.88;4.60;;;;;;;;;;6275575;22;20228;-65
2023/10/18 07:53:07;;;;;;;9.23;5.20;;;;;;;;;;6247596;22;20061;-64
2023/10/18 07:55:41;;;;;;;7.47;4.45;;;;;;;;;;6278129;22;20025;-64
2023/10/18 07:58:17;;;;;;;7.28;4.30;;;;;;;;;;6274691;22;20007;-64
2023/10/18 08:00:52;;;;;;;9.02;4.05;;;;;;;;;;6250029;22;20436;-65
2023/10/18 08:03:18;;;;;;;9.13;4.22;;;;;;;;;;6275988;22;20053;-66
2023/10/18 08:05:50;;;;;;;9.23;4.50;;;;;;;;;;6275401;22;20003;-64
2023/10/18 08:08:18;;;;;;;6.22;3.80;;;;;;;;;;6276587;22;20276;-64
2023/10/18 08:10:46;;;;;;;10.73;4.75;;;;;;;;;;6246800;22;20007;-62
2023/10/18 08:13:16;;;;;;;8.68;5.50;;;;;;;;;;6276369;22;20125;-65
2023/10/18 08:15:50;;;;;;;14.23;6.05;;;;;;;;;;6246338;22;20011;-63
2023/10/18 08:18:16;;;;;;;8.88;4.50;;;;;;;;;;6247570;22;20003;-63
2023/10/18 08:26:06;;;;;;;7.22;3.95;;;;;;;;;;6284279;22;19999;-64
2023/10/18 08:28:38;;;;;;;7.57;3.92;;;;;;;;;;6248752;22;20030;-66
2023/10/18 08:31:35;;;;;;;8.15;4.35;;;;;;;;;;6278903;22;20003;-69
2023/10/18 08:34:05;;;;;;;7.82;4.28;;;;;;;;;;6249073;22;19996;-67
2023/10/18 08:36:31;;;;;;;12.90;4.40;;;;;;;;;;6247314;22;20081;-64
2023/10/18 08:39:01;;;;;;;7.85;5.07;;;;;;;;;;6244528;22;20011;-65
2023/10/18 08:41:37;;;;;;;7.68;4.55;;;;;;;;;;6273490;22;20306;-66
2023/10/18 08:44:08;;;;;;;9.88;4.90;;;;;;;;;;6280505;22;20721;-64
2023/10/18 08:46:38;;;;;;;8.40;4.43;;;;;;;;;;6254041;22;20106;-63
2023/10/18 08:49:03;;;;;;;;;;;;;;;;;;6283258;22;20027;-65
2023/10/18 08:51:29;;;;;;;8.38;5.07;;;;;;;;;;6283482;22;19941;-64
2023/10/18 08:53:57;;;;;;;8.88;4.95;;;;;;;;;;6281495;22;20057;-66
2023/10/18 08:56:29;;;;;;;8.07;4.35;;;;;;;;;;6281001;22;20098;-64
2023/10/18 08:58:56;;;;;;;13.52;5.07;;;;;;;;;;6254221;22;20003;-64
2023/10/18 09:01:25;;;;;;;6.85;4.35;;;;;;;;;;6281688;22;19999;-65
2023/10/18 09:03:50;;;;;;;8.88;4.22;;;;;;;;;;6282148;22;20081;-65
2023/10/18 09:06:22;;;;;;;7.97;4.60;;;;;;;;;;6282702;22;19999;-64
2023/10/18 09:09:10;;;;;;;7.18;4.00;;;;;;;;;;6280205;22;20050;-65
2023/10/18 09:11:36;;;;;;;8.57;4.30;;;;;;;;;;6252176;22;20150;-66
2023/10/18 09:14:07;;;;;;;8.45;4.45;;;;;;;;;;6281906;22;20019;-65
2023/10/18 09:16:37;;;;;;;9.38;4.50;;;;;;;;;;6254402;22;20060;-64
2023/10/18 09:19:02;;;;;;;;;;;;;;;;;;6255574;22;20118;-65
2023/10/18 09:21:36;;;;;;;9.23;4.65;;;;;;;;;;6283557;22;20089;-65
2023/10/18 09:24:05;;;;;;;7.90;4.40;;;;;;;;;;6284616;22;20078;-63
2023/10/18 09:26:40;;;;;;;9.00;4.70;;;;;;;;;;6255249;22;20031;-64
2023/10/18 09:29:09;;;;;;;9.15;5.38;;;;;;;;;;6257988;22;20444;-65
2023/10/18 09:31:34;;;;;;;10.15;5.35;;;;;;;;;;6254209;22;20038;-65
2023/10/18 09:34:07;;;;;;;12.90;6.57;;;;;;;;;;6259337;22;20039;-65
2023/10/18 09:36:38;;;;;;;9.93;5.60;;;;;;;;;;6283217;22;20485;-68
2023/10/18 09:39:07;;;;;;;10.60;5.45;;;;;;;;;;6256820;22;20003;-65
2023/10/18 09:41:32;;;;;;;11.67;6.07;;;;;;;;;;6256136;22;20433;-65
2023/10/18 09:44:00;;;;;;;9.10;5.88;;;;;;;;;;6286382;22;20137;-64
2023/10/18 09:46:26;;;;;;;10.40;5.85;;;;;;;;;;6281684;22;20190;-65
2023/10/18 09:48:52;;;;;;;9.13;5.82;;;;;;;;;;6255449;22;20852;-64
2023/10/18 09:51:23;;;;;;;11.55;6.30;;;;;;;;;;6255943;22;19999;-66
2023/10/18 09:53:52;;;;;;;10.65;6.47;;;;;;;;;;6253676;22;20695;-67
2023/10/18 09:56:27;;;;;;;12.23;6.75;;;;;;;;;;6284374;22;20594;-66
2023/10/18 09:59:05;;;;;;;11.95;6.88;;;;;;;;;;6278978;22;20071;-65
2023/10/18 10:04:09;;;;;;;13.85;7.68;;;;;;;;;;6286662;22;20750;-66
2023/10/18 10:06:35;;;;;;;11.70;7.43;;;;;;;;;;6276071;22;20006;-66
2023/10/18 10:09:12;;;;;;;12.98;7.85;;;;;;;;;;6248042;22;19999;-68
2023/10/18 10:11:39;;;;;;;13.82;7.80;;;;;;;;;;6277372;22;20065;-68
2023/10/18 10:14:08;;;;;;;12.30;8.52;;;;;;;;;;6249821;22;20068;-68
2023/10/18 10:16:33;;;;;;;14.00;8.60;;;;;;;;;;6276056;22;20483;-66
2023/10/18 10:19:04;;;;;;;14.80;8.63;;;;;;;;;;6277730;22;20006;-67
2023/10/18 10:21:33;;;;;;;15.05;9.27;;;;;;;;;;6246983;22;20007;-66
2023/10/18 10:24:06;;;;;;;14.13;9.45;;;;;;;;;;6251048;22;19999;-67
2023/10/18 10:26:35;;;;;;;14.57;10.20;;;;;;;;;;6246926;22;19999;-67
2023/10/18 10:31:53;;;;;;;15.82;9.90;;;;;;;;;;6276178;22;20007;-66
2023/10/18 10:34:27;;;;;;;14.60;10.18;;;;;;;;;;6275207;22;20022;-65
2023/10/18 10:36:53;;;;;;;13.63;9.70;;;;;;;;;;6277984;22;19995;-66
2023/10/18 10:39:23;;;;;;;16.65;9.48;;;;;;;;;;6274490;22;20097;-66
2023/10/18 10:41:49;;;;;;;12.70;8.43;;;;;;;;;;6278513;22;20517;-67
2023/10/18 10:44:22;;;;;;;16.60;8.18;;;;;;;;;;6277561;22;20019;-67
2023/10/18 10:46:50;;;;;;;13.35;8.00;;;;;;;;;;6274569;22;20000;-67
2023/10/18 10:49:45;;;;;;;14.73;8.68;;;;;;;;;;6248943;22;20592;-67
2023/10/18 10:52:10;;;;;;;15.60;8.55;;;;;;;;;;6241287;22;20003;-67
2023/10/18 10:54:38;;;;;;;13.13;8.13;;;;;;;;;;6271372;22;20654;-66
2023/10/18 10:57:08;;;;;;;13.73;7.90;;;;;;;;;;6242753;22;20145;-67
2023/10/18 10:59:41;;;;;;;12.70;8.13;;;;;;;;;;6275612;22;20003;-67
2023/10/18 11:02:06;;;;;;;13.27;7.78;;;;;;;;;;6275075;22;20002;-67
2023/10/18 11:04:57;;;;;;;12.20;8.20;;;;;;;;;;6275187;22;19999;-67
2023/10/18 11:07:24;;;;;;;12.07;7.88;;;;;;;;;;6274163;22;20090;-67
2023/10/18 11:09:51;;;;;;;16.00;8.35;;;;;;;;;;6245998;22;20003;-67
2023/10/18 11:12:20;;;;;;;14.00;8.98;;;;;;;;;;6275719;22;20283;-67
2023/10/18 11:14:50;;;;;;;;;;;;;;;;;;6249707;22;20337;-67
2023/10/18 11:19:41;;;;;;;16.27;8.93;;;;;;;;;;6276536;22;20007;-67
2023/10/18 11:22:19;;;;;;;14.30;8.83;;;;;;;;;;6275296;22;20011;-66
2023/10/18 11:24:45;;;;;;;13.60;9.57;;;;;;;;;;6274724;22;20428;-66
2023/10/18 11:27:11;;;;;;;14.35;9.07;;;;;;;;;;6276071;22;20074;-68
2023/10/18 11:29:38;;;;;;;14.43;9.70;;;;;;;;;;6248435;22;20328;-67
2023/10/18 11:32:07;;;;;;;14.50;8.93;;;;;;;;;;6275789;22;19995;-65
2023/10/18 11:34:33;;;;;;;14.90;9.23;;;;;;;;;;6246960;22;20557;-67
2023/10/18 11:37:02;;;;;;;14.65;9.25;;;;;;;;;;6248194;22;20744;-67
2023/10/18 11:39:33;;;;;;;14.57;8.95;;;;;;;;;;6246627;22;20005;-67
2023/10/18 11:41:59;;;;;;;14.50;8.68;;;;;;;;;;6252903;22;20003;-67
2023/10/18 11:44:28;;;;;;;14.80;9.20;;;;;;;;;;6280639;22;20201;-68
2023/10/18 11:46:57;;;;;;;15.48;9.65;;;;;;;;;;6282552;22;20540;-66
2023/10/18 11:49:34;;;;;;;17.00;10.10;;;;;;;;;;6282903;22;20004;-67
2023/10/18 11:52:02;;;;;;;16.80;9.25;;;;;;;;;;6281825;22;20026;-68
2023/10/18 11:54:35;;;;;;;15.75;9.80;;;;;;;;;;6281337;22;20027;-66
2023/10/18 11:57:07;;;;;;;15.68;9.50;;;;;;;;;;6282029;22;20465;-67
2023/10/18 11:59:49;;;;;;;18.75;9.95;;;;;;;;;;6281857;22;20003;-66
2023/10/18 12:02:14;;;;;;;14.70;10.10;;;;;;;;;;6284238;22;20010;-66
2023/10/18 12:04:39;;;;;;;19.07;8.80;;;;;;;;;;6254453;22;20003;-66
2023/10/18 12:07:08;;;;;;;20.43;9.27;;;;;;;;;;6282032;22;20225;-67
2023/10/18 12:09:42;;;;;;;17.50;10.20;;;;;;;;;;6283466;22;20300;-66
2023/10/18 12:12:08;;;;;;;15.70;9.82;;;;;;;;;;6253690;22;20730;-67
2023/10/18 12:14:36;;;;;;;12.18;9.25;;;;;;;;;;6283114;22;20027;-68
2023/10/18 12:17:02;;;;;;;13.27;9.63;;;;;;;;;;6278430;22;19999;-66
2023/10/18 12:19:27;;;;;;;19.83;10.57;;;;;;;;;;6256485;22;20015;-62
2023/10/18 12:21:59;;;;;;;18.05;11.00;;;;;;;;;;6253242;22;20623;-64
2023/10/18 12:24:28;;;;;;;16.33;10.10;;;;;;;;;;6282298;22;20130;-66
2023/10/18 12:26:56;;;;;;;14.45;9.23;;;;;;;;;;6282334;22;20022;-65
2023/10/18 12:29:26;;;;;;;15.50;9.82;;;;;;;;;;6284791;22;20031;-66
2023/10/18 12:31:53;;;;;;;16.00;10.45;;;;;;;;;;6280547;22;20105;-65
2023/10/18 12:34:21;;;;;;;13.93;10.13;;;;;;;;;;6254546;22;20031;-66
2023/10/18 12:36:49;;;;;;;15.77;10.30;;;;;;;;;;6279840;22;20086;-66
2023/10/18 12:39:20;;;;;;;19.63;10.57;;;;;;;;;;6283088;22;20030;-66
2023/10/18 12:41:46;;;;;;;15.63;10.25;;;;;;;;;;6283092;22;20003;-66
2023/10/18 12:44:17;;;;;;;15.23;10.05;;;;;;;;;;6282792;22;20022;-66
2023/10/18 12:46:45;;;;;;;22.85;10.82;;;;;;;;;;6279297;22;20014;-66
2023/10/18 12:49:11;;;;;;;15.23;10.15;;;;;;;;;;6255188;22;19999;-66
2023/10/18 12:51:42;;;;;;;15.45;10.27;;;;;;;;;;6280215;22;20816;-65
2023/10/18 12:54:19;;;;;;;16.23;9.65;;;;;;;;;;6285830;22;20514;-66
2023/10/18 12:56:56;;;;;;;18.92;10.38;;;;;;;;;;6256218;22;20110;-66
2023/10/18 12:59:24;;;;;;;13.60;9.85;;;;;;;;;;6255987;22;20011;-64
2023/10/18 13:01:50;;;;;;;18.63;10.43;;;;;;;;;;6258259;22;20046;-66
2023/10/18 13:04:18;;;;;;;18.02;10.20;;;;;;;;;;6256034;22;20385;-67
2023/10/18 13:06:47;;;;;;;15.45;10.38;;;;;;;;;;6257243;22;20014;-63
2023/10/18 13:14:11;;;;;;;13.50;9.57;;;;;;;;;;6282164;22;20102;-65
2023/10/18 13:16:37;;;;;;;19.80;10.18;;;;;;;;;;6284964;22;20002;-66
2023/10/18 13:19:06;;;;;;;17.40;10.57;;;;;;;;;;6284633;22;20003;-66
2023/10/18 13:21:31;;;;;;;18.70;9.40;;;;;;;;;;6282843;22;20053;-67
2023/10/18 13:23:59;;;;;;;16.60;10.43;;;;;;;;;;6286076;22;19995;-66
2023/10/18 13:26:28;;;;;;;17.00;10.75;;;;;;;;;;6282181;22;20058;-66
2023/10/18 13:28:59;;;;;;;17.25;11.50;;;;;;;;;;6285762;22;20009;-66
2023/10/18 13:31:32;;;;;;;16.75;10.30;;;;;;;;;;6254173;22;20003;-65
2023/10/18 13:34:06;;;;;;;18.33;11.77;;;;;;;;;;6285613;22;19999;-66
2023/10/18 13:36:32;;;;;;;17.40;10.73;;;;;;;;;;6280927;22;20013;-66
2023/10/18 13:38:57;;;;;;;16.50;11.10;;;;;;;;;;6256145;22;20739;-64
2023/10/18 13:41:23;;;;;;;17.00;11.15;;;;;;;;;;6256338;22;20387;-66
2023/10/18 13:43:54;;;;;;;20.87;11.83;;;;;;;;;;6256286;22;19999;-65
2023/10/18 13:46:23;;;;;;;16.88;11.90;;;;;;;;;;6254071;22;20221;-65
2023/10/18 13:48:51;;;;;;;20.05;11.90;;;;;;;;;;6256199;22;20410;-65
2023/10/18 13:51:22;;;;;;;19.08;11.50;;;;;;;;;;6284191;22;20005;-66
2023/10/18 13:53:47;;;;;;;16.35;11.57;;;;;;;;;;6281337;22;20002;-66
2023/10/18 13:56:13;;;;;;;20.10;11.98;;;;;;;;;;6283948;22;20325;-65
2023/10/18 13:58:41;;;;;;;17.77;11.68;;;;;;;;;;6256043;22;20078;-65
2023/10/18 14:01:16;;;;;;;19.50;11.63;;;;;;;;;;6285694;22;20019;-64
2023/10/18 14:03:42;;;;;;;21.67;12.38;;;;;;;;;;6280647;22;20137;-67
2023/10/18 14:06:10;;;;;;;23.73;12.80;;;;;;;;;;6282326;22;20644;-65
2023/10/18 14:08:35;;;;;;;20.88;11.80;;;;;;;;;;6258678;22;20003;-67
2023/10/18 14:11:04;;;;;;;17.73;12.15;;;;;;;;;;6254029;22;20372;-68
2023/10/18 14:13:32;;;;;;;21.30;12.75;;;;;;;;;;6257294;22;20003;-67
2023/10/18 14:15:57;;;;;;;17.40;12.55;;;;;;;;;;6282702;22;20005;-66
2023/10/18 14:18:25;;;;;;;21.17;12.07;;;;;;;;;;6256885;22;20162;-66
2023/10/18 14:20:51;;;;;;;17.27;12.20;;;;;;;;;;6282965;22;19995;-66
2023/10/18 14:23:19;;;;;;;20.55;12.77;;;;;;;;;;6256085;22;20071;-66
2023/10/18 14:25:45;;;;;;;18.75;12.63;;;;;;;;;;6255787;22;20003;-65
2023/10/18 14:28:12;;;;;;;17.80;12.30;;;;;;;;;;6254568;22;20006;-67
2023/10/18 14:30:40;;;;;;;21.02;12.32;;;;;;;;;;6257173;22;20019;-66
2023/10/18 14:33:07;;;;;;;23.90;12.55;;;;;;;;;;6282406;22;20009;-66
2023/10/18 14:35:32;;;;;;;18.30;11.63;;;;;;;;;;6282597;22;19999;-65
2023/10/18 14:38:06;;;;;;;22.80;12.82;;;;;;;;;;6284041;22;20014;-66
2023/10/18 14:40:34;;;;;;;24.50;12.20;;;;;;;;;;6281706;22;19996;-64
2023/10/18 14:43:00;;;;;;;20.88;12.02;;;;;;;;;;6258872;22;20008;-65
2023/10/18 14:45:32;;;;;;;21.20;12.18;;;;;;;;;;6281386;22;20015;-63
2023/10/18 14:47:57;;;;;;;22.85;11.43;;;;;;;;;;6285970;22;20254;-66
2023/10/18 14:50:22;;;;;;;18.70;12.85;;;;;;;;;;6283433;22;20428;-65
2023/10/18 14:52:47;;;;;;;21.03;12.07;;;;;;;;;;6256257;22;20011;-65
2023/10/18 14:55:12;;;;;;;20.40;12.37;;;;;;;;;;6256113;22;20003;-65
2023/10/18 14:57:40;;;;;;;20.90;11.80;;;;;;;;;;6283101;22;20060;-65
2023/10/18 15:00:10;;;;;;;19.27;12.65;;;;;;;;;;6285673;22;20218;-65
2023/10/18 15:02:36;;;;;;;20.80;12.35;;;;;;;;;;6253929;22;20035;-66
2023/10/18 15:05:01;;;;;;;17.92;12.68;;;;;;;;;;6257012;22;20050;-64
2023/10/18 15:07:29;;;;;;;18.60;13.45;;;;;;;;;;6253559;22;20336;-64
2023/10/18 15:09:56;;;;;;;20.17;13.03;;;;;;;;;;6284698;22;19996;-64
2023/10/18 15:12:24;;;;;;;20.75;12.93;;;;;;;;;;6281698;22;20268;-65
2023/10/18 15:14:49;;;;;;;24.80;14.50;;;;;;;;;;6256272;22;19999;-65
2023/10/18 15:17:17;;;;;;;19.37;12.63;;;;;;;;;;6283751;22;20109;-66
2023/10/18 15:19:43;;;;;;;16.38;12.23;;;;;;;;;;6252272;22;20225;-66
2023/10/18 15:22:08;;;;;;;18.67;11.93;;;;;;;;;;6284219;22;20006;-64
2023/10/18 15:24:40;;;;;;;18.85;12.82;;;;;;;;;;6280605;22;20671;-67
2023/10/18 15:27:12;;;;;;;17.65;11.75;;;;;;;;;;6284519;22;19991;-65
2023/10/18 15:29:37;;;;;;;16.88;12.02;;;;;;;;;;6255250;22;20010;-65